ADDS METAR Data INFO
IDs: Format: Raw Decoded Include TAF

Data at: 2006 UTC 19 Oct 2017

KDUG 191956Z AUTO 19009KT 10SM CLR 29/M01 A2998 RMK AO2 SLP087 T02941011
KDUG 191856Z AUTO 16007G16KT 10SM CLR 29/M01 A3002 RMK AO2 SLP099 T02891011
KDUG 191756Z AUTO 10SM CLR 28/M01 A3005 RMK AO2 SLP108 6//// T02831006 10283 20111 58006
KDUG 191656Z AUTO A3006 RMK AO2 SLPNO PWINO PNO $
KDUG 191556Z AUTO 18005KT 10SM CLR 22/04 A3007 RMK AO2 SLP116 T02220039
KDUG 191456Z AUTO 00000KT 10SM CLR 18/06 A3007 RMK AO2 SLP125 T01830056 53010
KDUG 191356Z AUTO 13003KT 10SM CLR 13/06 A3005 RMK AO2 SLP119 T01280056
KDUG 191256Z AUTO 14004KT 10SM CLR 11/04 A3005 RMK AO2 SLP119 T01110039
KDUG 191156Z AUTO 09003KT 10SM CLR 13/04 A3004 RMK AO2 SLP111 T01280044 10189 20122 55003
KDUG 191056Z AUTO 13005KT 10SM CLR 15/06 A3003 RMK AO2 SLP104 T01500061
KDUG 190956Z AUTO 08003KT 10SM CLR 14/05 A3003 RMK AO2 SLP106 T01390050
KDUG 190856Z AUTO 00000KT 10SM CLR 15/06 A3005 RMK AO2 SLP109 T01500056 58003
KDUG 190756Z AUTO 07004KT 10SM CLR 16/06 A3005 RMK AO2 SLP111 T01560061
KDUG 190656Z AUTO 00000KT 10SM CLR 17/06 A3006 RMK AO2 SLP112 T01720061 403170156
KDUG 190556Z AUTO 07004KT 10SM CLR 19/07 A3006 RMK AO2 SLP111 T01890067 10300 20189 50005
KDUG 190456Z AUTO 00000KT 10SM CLR 20/07 A3007 RMK AO2 SLP115 T02000072
KDUG 190356Z AUTO 10006KT 10SM OVC110 24/07 A3006 RMK AO2 SLP110 T02440072
KDUG 190256Z AUTO 02007KT 10SM FEW110 23/03 A3004 RMK AO2 SLP113 T02280028 51007
KDUG 190156Z AUTO 02010KT 10SM OVC120 28/03 A3004 RMK AO2 SLP109 T02830028
KDUG 190056Z AUTO 00000KT 10SM BKN110 27/02 A3003 RMK AO2 SLP105 T02720022
KDUG 182356Z AUTO 00000KT 10SM BKN110 29/01 A3002 RMK AO2 SLP097 T02940011 10317 20278 56007
KDUG 182256Z AUTO 31007KT 10SM FEW120 31/01 A3003 RMK AO2 SLP098 T03060006
KDUG 182156Z AUTO 28011KT 10SM SCT110 32/M01 A3003 RMK AO2 SLP097 T03171006
KDUG 182056Z AUTO 33009KT 10SM BKN100 32/04 A3005 RMK AO2 SLP101 T03170039 58029
KDUG 181956Z AUTO VRB04KT 10SM SCT095 31/05 A3008 RMK AO2 SLP112 T03060050
KDUG 181856Z AUTO 19006KT 10SM CLR 29/06 A3012 RMK AO2 LTG DSNT NE SLP126 T02940056
KDUG 181756Z AUTO VRB04KT 10SM CLR 28/06 A3014 RMK AO2 SLP133 T02830061 10283 20156 50000
KDUG 181656Z AUTO VRB03KT 10SM SCT085 BKN100 26/06 A3016 RMK AO2 SLP140 T02610061
KDUG 181556Z AUTO 00000KT 10SM FEW085 23/07 A3016 RMK AO2 SLP144 T02330067
KDUG 181456Z AUTO 00000KT 10SM CLR 19/07 A3014 RMK AO2 SLP144 T01940067 53012
KDUG 181356Z AUTO 00000KT 10SM FEW095 16/07 A3012 RMK AO2 SLP142 T01560067
KDUG 181256Z AUTO 25003KT 10SM SCT090 BKN100 17/07 A3011 RMK AO2 SLP135 T01670067
KDUG 181156Z AUTO 02005KT 10SM BKN090 18/07 A3010 RMK AO2 SLP125 T01830067 10233 20167 55001
KDUG 181056Z AUTO 02006KT 10SM FEW090 17/06 A3010 RMK AO2 SLP125 T01720061
KDUG 180956Z AUTO 00000KT 10SM CLR 18/06 A3009 RMK AO2 SLP122 T01780061
KDUG 180856Z AUTO 02003KT 10SM CLR 19/07 A3011 RMK AO2 SLP126 T01940067 58004